Time;durP1;ratioP1;P1;durP2;ratioP2;P2;SDS_P1;SDS_P2;PMS_P1;PMS_P2;Temp;Humidity;BMP_temperature;BMP_pressure;BME280_temperature;BME280_humidity;BME280_pressure;Samples;Min_cycle;Max_cycle;Signal;HPM_P1;HPM_P2
2021/10/05 00:00:30;;;;;;;6.67;6.24;;;;;;;12.29;58.26;102298.00;460432;113;923032;-74
2021/10/05 00:01:34;;;;;;;6.50;5.99;;;;;;;12.28;58.19;102293.56;461778;114;922804;-74
2021/10/05 00:02:38;;;;;;;6.62;6.12;;;;;;;12.28;58.28;102299.03;463923;114;930555;-74
2021/10/05 00:03:41;;;;;;;6.52;6.02;;;;;;;12.28;58.25;102299.03;464784;114;922500;-75
2021/10/05 00:04:45;;;;;;;6.05;5.55;;;;;;;12.28;58.21;102308.09;463897;114;930506;-75
2021/10/05 00:05:48;;;;;;;6.36;5.87;;;;;;;12.29;58.21;102300.73;460745;114;930611;-75
2021/10/05 00:06:51;;;;;;;5.99;5.56;;;;;;;12.29;58.19;102300.73;459997;114;922414;-74
2021/10/05 00:07:55;;;;;;;6.28;5.62;;;;;;;12.29;58.17;102303.47;462706;113;930449;-75
2021/10/05 00:08:58;;;;;;;8.78;5.66;;;;;;;12.30;58.15;102302.41;461629;114;923236;-74
2021/10/05 00:10:05;;;;;;;6.58;6.02;;;;;;;12.30;58.13;102307.88;458649;115;930496;-75
2021/10/05 00:11:08;;;;;;;6.18;5.69;;;;;;;12.30;58.14;102297.80;460012;113;930506;-74
2021/10/05 00:12:12;;;;;;;6.36;5.86;;;;;;;12.31;58.09;102301.38;459035;115;923145;-75
2021/10/05 00:13:15;;;;;;;7.28;6.61;;;;;;;12.31;58.06;102304.12;459233;113;930425;-75
2021/10/05 00:14:19;;;;;;;6.96;6.39;;;;;;;12.32;58.02;102303.94;458391;115;930549;-75
2021/10/05 00:15:23;;;;;;;6.39;5.84;;;;;;;12.32;58.01;102308.56;458801;113;930706;-75
2021/10/05 00:16:27;;;;;;;6.75;6.25;;;;;;;12.32;58.01;102300.36;458479;115;923083;-75
2021/10/05 00:17:31;;;;;;;7.14;5.97;;;;;;;12.31;57.99;102301.38;458716;115;923344;-74
2021/10/05 00:18:36;;;;;;;6.24;5.49;;;;;;;12.32;57.99;102305.83;459390;113;923119;-75
2021/10/05 00:19:40;;;;;;;6.44;5.94;;;;;;;12.31;57.95;102298.65;457991;115;922658;-75
2021/10/05 00:20:43;;;;;;;6.59;6.12;;;;;;;12.31;57.93;102301.38;459461;113;930355;-74
2021/10/05 00:21:47;;;;;;;5.96;5.39;;;;;;;12.30;57.93;102302.41;458962;115;930758;-75
2021/10/05 00:22:50;;;;;;;6.25;5.81;;;;;;;12.30;57.88;102302.41;458718;113;930963;-75
2021/10/05 00:23:54;;;;;;;10.15;6.27;;;;;;;12.29;57.87;102298.00;460042;113;922678;-74
2021/10/05 00:24:57;;;;;;;7.12;6.57;;;;;;;12.25;57.88;102302.97;458729;115;930637;-74
2021/10/05 00:26:00;;;;;;;9.56;7.23;;;;;;;12.24;57.91;102311.37;459003;115;922835;-75
2021/10/05 00:27:04;;;;;;;7.91;7.18;;;;;;;12.22;57.96;102311.55;459611;115;922835;-74
2021/10/05 00:28:08;;;;;;;9.71;8.95;;;;;;;12.20;57.98;102304.55;459934;113;922663;-73
2021/10/05 00:29:11;;;;;;;6.93;6.43;;;;;;;12.17;58.06;102305.79;457933;115;931016;-74
2021/10/05 00:30:15;;;;;;;8.18;7.53;;;;;;;12.16;58.06;102303.23;459338;113;930400;-75
2021/10/05 00:31:18;;;;;;;8.11;7.50;;;;;;;12.13;58.08;102310.75;458668;115;923190;-74
2021/10/05 00:32:22;;;;;;;7.51;6.91;;;;;;;12.11;58.15;102307.38;459105;115;922640;-74
2021/10/05 00:33:25;;;;;;;6.33;5.80;;;;;;;12.09;58.21;102303.95;458437;113;930631;-75
2021/10/05 00:34:28;;;;;;;7.08;6.54;;;;;;;12.07;58.23;102308.75;459522;113;924571;-74
2021/10/05 00:35:31;;;;;;;6.02;5.51;;;;;;;12.06;58.28;102307.07;458373;115;922695;-74
2021/10/05 00:36:35;;;;;;;7.43;5.76;;;;;;;12.07;58.31;102306.02;459382;115;922576;-75
2021/10/05 00:37:39;;;;;;;6.23;5.74;;;;;;;12.05;58.35;102304.52;459549;115;930552;-74
2021/10/05 00:38:42;;;;;;;6.17;5.57;;;;;;;12.03;58.38;102303.83;448477;117;922577;-74
2021/10/05 00:39:45;;;;;;;6.09;5.66;;;;;;;12.01;58.49;102301.30;448026;115;922527;-75
2021/10/05 00:40:49;;;;;;;6.20;5.67;;;;;;;11.99;58.54;102306.09;458749;115;922703;-75
2021/10/05 00:41:53;;;;;;;7.01;6.49;;;;;;;11.98;58.55;102306.27;458707;115;922873;-75
2021/10/05 00:42:57;;;;;;;7.02;6.42;;;;;;;11.95;58.60;102301.17;459950;115;922531;-75
2021/10/05 00:44:00;;;;;;;6.44;5.97;;;;;;;11.92;58.62;102307.84;459409;115;930689;-75
2021/10/05 00:45:05;;;;;;;6.91;6.41;;;;;;;11.88;58.69;102301.05;458399;113;922431;-74
2021/10/05 00:46:09;;;;;;;7.00;6.41;;;;;;;11.84;58.70;102299.72;460166;113;922478;-75
2021/10/05 00:47:14;;;;;;;6.18;5.68;;;;;;;11.79;58.75;102304.87;459614;115;922923;-75
2021/10/05 00:48:17;;;;;;;7.51;6.89;;;;;;;11.74;58.86;102304.57;459655;115;922994;-75
2021/10/05 00:49:21;;;;;;;6.96;6.29;;;;;;;11.70;58.93;102308.64;459474;115;922999;-75
2021/10/05 00:50:25;;;;;;;6.24;5.84;;;;;;;11.64;59.06;102307.47;458550;115;927879;-75
2021/10/05 00:51:31;;;;;;;6.57;6.04;;;;;;;11.61;59.18;102313.31;459309;115;922480;-75
2021/10/05 00:52:35;;;;;;;6.98;6.37;;;;;;;11.58;59.32;102310.92;459772;115;930555;-73
2021/10/05 00:53:39;;;;;;;6.35;5.77;;;;;;;11.55;59.40;102307.71;459839;115;922804;-73
2021/10/05 00:54:44;;;;;;;6.39;5.89;;;;;;;11.53;59.46;102312.48;459000;115;922497;-74
2021/10/05 00:55:49;;;;;;;6.36;5.85;;;;;;;11.52;59.57;102311.63;458879;115;922985;-73
2021/10/05 00:56:52;;;;;;;6.78;6.26;;;;;;;11.51;59.66;102314.57;459837;115;923092;-75
2021/10/05 00:57:56;;;;;;;6.75;6.19;;;;;;;11.50;59.67;102312.86;440808;117;922687;-74
2021/10/05 00:58:59;;;;;;;6.46;5.87;;;;;;;11.48;59.70;102310.30;446532;115;923042;-74
2021/10/05 01:00:06;;;;;;;6.36;5.84;;;;;;;11.46;59.69;102312.38;459417;115;922884;-75
2021/10/05 01:01:10;;;;;;;6.97;6.35;;;;;;;11.43;59.78;102309.13;459555;115;923211;-75
2021/10/05 01:02:14;;;;;;;6.37;5.86;;;;;;;11.40;59.83;102307.63;460695;115;922489;-74
2021/10/05 01:03:18;;;;;;;11.11;6.40;;;;;;;11.38;59.94;102314.28;459874;115;923469;-74
2021/10/05 01:04:21;;;;;;;6.51;6.04;;;;;;;11.36;60.03;102313.62;459607;115;930552;-74
2021/10/05 01:05:25;;;;;;;6.33;5.86;;;;;;;11.33;60.08;102309.36;458594;115;922862;-74
2021/10/05 01:06:29;;;;;;;6.78;5.96;;;;;;;11.32;60.11;102307.66;458914;115;930496;-74
2021/10/05 01:07:33;;;;;;;6.85;6.39;;;;;;;11.32;60.20;102309.53;458741;115;922940;-74
2021/10/05 01:08:37;;;;;;;6.50;6.01;;;;;;;11.28;60.18;102309.90;460503;115;923063;-74
2021/10/05 01:09:40;;;;;;;5.81;5.34;;;;;;;11.27;60.21;102318.26;460369;113;922458;-75
2021/10/05 01:10:44;;;;;;;6.90;6.34;;;;;;;11.24;60.24;102311.29;460002;115;922519;-73
2021/10/05 01:11:47;;;;;;;7.36;6.84;;;;;;;11.22;60.28;102312.48;459404;115;923057;-75
2021/10/05 01:12:51;;;;;;;6.24;5.73;;;;;;;11.19;60.39;102308.20;460011;115;930545;-74
2021/10/05 01:13:56;;;;;;;6.56;6.06;;;;;;;11.17;60.41;102307.55;459501;115;930717;-74
2021/10/05 01:14:59;;;;;;;7.45;6.81;;;;;;;11.17;60.48;102309.43;459574;115;930668;-75
2021/10/05 01:16:02;;;;;;;6.89;6.38;;;;;;;11.15;60.52;102309.59;459719;115;930919;-75
2021/10/05 01:17:07;;;;;;;6.82;6.21;;;;;;;11.14;60.54;102302.43;459767;115;923007;-74
2021/10/05 01:18:10;;;;;;;6.42;5.64;;;;;;;11.13;60.62;102306.21;459331;115;923015;-74
2021/10/05 01:19:14;;;;;;;6.36;5.86;;;;;;;11.12;60.71;102307.23;459215;115;922508;-73
2021/10/05 01:20:19;;;;;;;6.39;5.88;;;;;;;11.12;60.73;102309.97;459513;115;922986;-75
2021/10/05 01:21:23;;;;;;;5.99;5.46;;;;;;;11.11;60.75;102308.25;459585;115;922982;-74
2021/10/05 01:22:26;;;;;;;6.74;6.14;;;;;;;11.10;60.79;102312.01;458643;115;923317;-74
2021/10/05 01:23:33;;;;;;;6.08;5.61;;;;;;;11.10;60.86;102312.01;458966;115;923009;-75
2021/10/05 01:24:36;;;;;;;6.96;6.45;;;;;;;11.11;60.89;102321.05;458589;115;922613;-74
2021/10/05 01:25:39;;;;;;;7.06;6.56;;;;;;;11.10;60.89;102311.16;440933;118;923058;-73
2021/10/05 01:26:44;;;;;;;6.47;5.97;;;;;;;11.10;60.90;102313.88;443234;119;930570;-74
2021/10/05 01:27:53;;;;;;;6.78;6.28;;;;;;;11.10;60.92;102316.61;442454;119;930567;-74
2021/10/05 01:28:56;;;;;;;6.73;6.21;;;;;;;11.09;60.93;102314.91;441681;119;930528;-74
2021/10/05 01:30:00;;;;;;;7.34;6.65;;;;;;;11.09;60.96;102314.91;440758;119;923227;-73
2021/10/05 01:31:03;;;;;;;5.92;5.42;;;;;;;11.08;60.98;102314.05;441862;119;923052;-75
2021/10/05 01:32:07;;;;;;;6.53;6.12;;;;;;;11.08;60.99;102313.23;440646;119;922966;-75
2021/10/05 01:33:12;;;;;;;7.14;6.64;;;;;;;11.07;61.05;102319.71;442396;119;930447;-75
2021/10/05 01:34:17;;;;;;;6.17;5.67;;;;;;;11.07;61.04;102320.56;441536;119;923050;-74
2021/10/05 01:35:20;;;;;;;6.24;5.73;;;;;;;11.06;61.06;102318.86;441963;119;922734;-75
2021/10/05 01:36:24;;;;;;;6.64;6.04;;;;;;;11.05;61.08;102319.02;442121;119;922682;-74
2021/10/05 01:37:28;;;;;;;6.61;6.11;;;;;;;11.05;61.10;102321.75;442099;119;923061;-75
2021/10/05 01:38:31;;;;;;;8.13;6.58;;;;;;;11.03;61.11;102321.92;441656;119;930603;-74
2021/10/05 01:39:38;;;;;;;5.99;5.58;;;;;;;11.02;61.12;102325.70;444048;118;928178;-74
2021/10/05 01:40:42;;;;;;;6.58;6.09;;;;;;;11.02;61.17;102320.24;449253;118;923122;-75
2021/10/05 01:41:46;;;;;;;7.25;6.74;;;;;;;11.00;61.18;102322.28;449507;117;922600;-75
2021/10/05 01:42:49;;;;;;;6.55;6.04;;;;;;;10.99;61.23;102326.03;449590;118;930408;-75
2021/10/05 01:43:54;;;;;;;6.69;5.75;;;;;;;10.97;61.30;102319.89;440986;119;923011;-74
2021/10/05 01:44:57;;;;;;;10.21;6.77;;;;;;;10.95;61.29;102330.15;442542;119;922696;-74
2021/10/05 01:46:01;;;;;;;7.29;6.64;;;;;;;10.94;61.34;102325.70;443738;119;930477;-73
2021/10/05 01:47:07;;;;;;;9.24;8.19;;;;;;;10.94;61.38;102327.58;431085;121;931203;-73
2021/10/05 01:48:10;;;;;;;7.83;7.23;;;;;;;10.93;61.44;102332.19;429955;120;922653;-74
2021/10/05 01:49:14;;;;;;;7.25;6.62;;;;;;;10.92;61.48;102330.48;443692;118;922699;-74
2021/10/05 01:50:19;;;;;;;7.15;6.59;;;;;;;10.92;61.46;102332.35;442263;119;922793;-74
2021/10/05 01:51:23;;;;;;;7.67;7.08;;;;;;;10.90;61.40;102334.42;438434;118;922971;-75
2021/10/05 01:52:26;;;;;;;7.61;6.93;;;;;;;10.89;61.46;102336.30;448796;118;930529;-75
2021/10/05 01:53:30;;;;;;;6.73;6.12;;;;;;;10.86;61.52;102337.48;442900;119;928154;-75
2021/10/05 01:54:34;;;;;;;7.26;6.53;;;;;;;10.87;61.57;102338.34;441115;120;930534;-75
2021/10/05 01:55:38;;;;;;;7.19;6.60;;;;;;;10.84;61.62;102344.16;449510;117;922455;-75
2021/10/05 01:56:42;;;;;;;7.47;6.47;;;;;;;10.84;61.68;102341.43;445654;117;930473;-74
2021/10/05 01:57:46;;;;;;;6.76;6.09;;;;;;;10.83;61.73;102345.18;445083;117;930513;-75
2021/10/05 01:58:49;;;;;;;6.87;6.19;;;;;;;10.81;61.71;102342.61;446405;118;922461;-74
2021/10/05 01:59:52;;;;;;;7.56;6.75;;;;;;;10.82;61.73;102348.92;445255;118;922780;-74
2021/10/05 02:00:56;;;;;;;6.98;6.44;;;;;;;10.82;61.77;102348.92;442014;118;923085;-74
2021/10/05 02:02:00;;;;;;;7.87;6.54;;;;;;;10.81;61.79;102349.95;441303;120;922508;-75
2021/10/05 02:03:04;;;;;;;10.80;6.85;;;;;;;10.82;61.79;102354.38;441346;120;930962;-74
2021/10/05 02:04:08;;;;;;;8.96;8.36;;;;;;;10.81;61.77;102356.26;440819;120;922509;-74
2021/10/05 02:05:12;;;;;;;9.22;8.45;;;;;;;10.81;61.80;102353.53;441912;119;930619;-75
2021/10/05 02:06:16;;;;;;;7.62;6.99;;;;;;;10.81;61.76;102356.26;442882;119;922565;-74
2021/10/05 02:07:19;;;;;;;7.53;6.94;;;;;;;10.82;61.75;102354.38;442316;119;922610;-74
2021/10/05 02:08:23;;;;;;;6.89;6.33;;;;;;;10.81;61.69;102352.67;442899;119;922721;-75
2021/10/05 02:09:26;;;;;;;8.43;7.69;;;;;;;10.81;61.69;102352.67;443022;117;930520;-74
2021/10/05 02:10:30;;;;;;;11.43;10.57;;;;;;;10.80;61.72;102356.45;450590;117;927284;-74
2021/10/05 02:11:34;;;;;;;9.11;8.31;;;;;;;10.80;61.75;102360.03;449425;117;930269;-74
2021/10/05 02:12:37;;;;;;;9.38;8.69;;;;;;;10.81;61.76;102360.86;451420;117;923181;-74
2021/10/05 02:13:42;;;;;;;7.21;6.71;;;;;;;10.80;61.75;102360.03;451186;117;922516;-74
2021/10/05 02:14:47;;;;;;;7.01;6.39;;;;;;;10.80;61.74;102351.00;450364;117;923099;-74
2021/10/05 02:15:50;;;;;;;6.89;6.40;;;;;;;10.79;61.74;102355.59;450990;117;922562;-76
2021/10/05 02:16:54;;;;;;;7.53;6.93;;;;;;;10.79;61.76;102358.33;440129;120;922929;-75
2021/10/05 02:17:57;;;;;;;6.83;6.28;;;;;;;10.79;61.79;102352.02;450132;117;930558;-75
2021/10/05 02:19:01;;;;;;;6.34;5.86;;;;;;;10.78;61.78;102355.77;447364;117;930760;-75
2021/10/05 02:20:06;;;;;;;8.16;6.42;;;;;;;10.77;61.79;102359.52;447586;117;922816;-74
2021/10/05 02:21:10;;;;;;;7.37;6.70;;;;;;;10.76;61.81;102360.53;448036;117;922778;-73
2021/10/05 02:22:13;;;;;;;7.49;6.89;;;;;;;10.75;61.85;102358.85;448297;117;922854;-75
2021/10/05 02:23:17;;;;;;;6.94;6.34;;;;;;;10.75;61.87;102358.85;449327;117;922962;-75
2021/10/05 02:25:26;;;;;;;7.19;6.57;;;;;;;10.74;61.89;102368.91;448728;116;923137;-74
2021/10/05 02:26:32;;;;;;;6.67;6.17;;;;;;;10.74;61.85;102360.73;449073;116;923125;-75
2021/10/05 02:27:35;;;;;;;6.93;6.24;;;;;;;10.74;61.85;102365.33;449311;118;923084;-74
2021/10/05 02:28:39;;;;;;;5.72;5.32;;;;;;;10.73;61.89;102363.62;450406;117;922688;-74
2021/10/05 02:29:43;;;;;;;7.86;7.08;;;;;;;10.71;61.92;102371.97;450138;117;922622;-73
2021/10/05 02:30:47;;;;;;;7.34;6.49;;;;;;;10.72;61.90;102375.55;449678;117;923085;-75
2021/10/05 02:31:50;;;;;;;6.74;6.14;;;;;;;10.71;61.91;102376.56;451908;116;927393;-74
2021/10/05 02:32:54;;;;;;;6.75;6.25;;;;;;;10.70;61.94;102377.59;448324;117;922769;-74
2021/10/05 02:33:58;;;;;;;6.71;6.21;;;;;;;10.69;61.92;102378.63;448571;117;923026;-75
2021/10/05 02:35:02;;;;;;;7.19;6.64;;;;;;;10.68;61.96;102376.92;446609;117;923070;-76
2021/10/05 02:36:06;;;;;;;7.09;6.50;;;;;;;10.66;61.94;102379.81;449150;117;930498;-75
2021/10/05 02:37:10;;;;;;;7.28;6.32;;;;;;;10.65;61.98;102382.70;449942;117;923320;-75
2021/10/05 02:38:13;;;;;;;6.44;5.95;;;;;;;10.64;61.99;102381.03;448895;117;922581;-74
2021/10/05 02:39:16;;;;;;;6.58;6.08;;;;;;;10.64;62.08;102381.03;448113;117;922968;-75
2021/10/05 02:40:21;;;;;;;6.96;6.36;;;;;;;10.64;62.09;102383.76;448446;117;922477;-73
2021/10/05 02:41:24;;;;;;;6.84;6.28;;;;;;;10.62;62.08;102381.19;450481;117;930527;-74
2021/10/05 02:42:28;;;;;;;6.84;6.34;;;;;;;10.61;62.06;102382.21;447909;117;922517;-75
2021/10/05 02:43:32;;;;;;;6.54;6.06;;;;;;;10.60;62.12;102385.09;447810;117;923150;-74
2021/10/05 02:44:36;;;;;;;7.61;7.01;;;;;;;10.58;62.16;102390.75;450067;117;923039;-76
2021/10/05 02:45:40;;;;;;;6.87;6.24;;;;;;;10.58;62.27;102390.75;449676;117;930570;-73
2021/10/05 02:46:45;;;;;;;6.96;6.34;;;;;;;10.57;62.30;102391.77;447516;117;922652;-73
2021/10/05 02:47:48;;;;;;;6.90;6.29;;;;;;;10.56;62.30;102394.66;448466;117;922909;-75
2021/10/05 02:48:51;;;;;;;7.22;6.47;;;;;;;10.54;62.23;102383.91;449890;117;922631;-74
2021/10/05 02:49:55;;;;;;;7.48;6.66;;;;;;;10.52;62.26;102398.75;447126;117;923031;-75
2021/10/05 02:50:58;;;;;;;6.95;6.39;;;;;;;10.49;62.28;102393.63;448149;117;922982;-75
2021/10/05 02:52:02;;;;;;;7.30;6.76;;;;;;;10.46;62.34;102397.56;448261;117;923104;-75
2021/10/05 02:53:06;;;;;;;6.87;6.26;;;;;;;10.42;62.38;102391.57;449266;117;923020;-74
2021/10/05 02:54:09;;;;;;;7.06;6.46;;;;;;;10.40;62.48;102401.81;448981;117;923201;-73
2021/10/05 02:55:12;;;;;;;7.04;6.49;;;;;;;10.37;62.56;102396.69;449493;117;922978;-74
2021/10/05 02:56:16;;;;;;;7.64;7.11;;;;;;;10.35;62.63;102404.20;448920;117;930719;-74
2021/10/05 02:57:21;;;;;;;7.56;6.87;;;;;;;10.34;62.72;102402.48;447229;117;930485;-74
2021/10/05 02:58:24;;;;;;;8.19;7.15;;;;;;;10.33;62.80;102399.92;448715;117;930622;-74
2021/10/05 02:59:28;;;;;;;7.47;6.88;;;;;;;10.31;62.86;102400.08;447650;117;930544;-74
2021/10/05 03:00:34;;;;;;;7.33;6.64;;;;;;;10.29;62.91;102402.14;447022;117;930502;-74
2021/10/05 03:01:38;;;;;;;7.36;6.70;;;;;;;10.29;63.00;102398.56;448611;117;922802;-75
2021/10/05 03:02:42;;;;;;;7.58;6.96;;;;;;;10.29;63.05;102404.02;448290;117;930704;-74
2021/10/05 03:03:45;;;;;;;7.16;6.64;;;;;;;10.28;63.04;102403.16;449985;115;922625;-75
2021/10/05 03:04:50;;;;;;;7.08;6.56;;;;;;;10.28;63.07;102400.44;448854;117;930572;-75
2021/10/05 03:05:53;;;;;;;6.84;6.25;;;;;;;10.29;63.07;102398.56;446800;117;930576;-73
2021/10/05 03:06:57;;;;;;;6.97;6.39;;;;;;;10.29;63.08;102396.70;448698;117;922963;-75
2021/10/05 03:08:00;;;;;;;8.69;7.05;;;;;;;10.30;63.07;102400.27;447430;117;922863;-74
2021/10/05 03:09:03;;;;;;;6.74;6.24;;;;;;;10.30;63.07;102400.27;449073;117;931188;-74
2021/10/05 03:10:09;;;;;;;6.85;6.35;;;;;;;10.30;63.02;102395.68;450185;117;924146;-74
2021/10/05 03:11:12;;;;;;;7.55;6.93;;;;;;;10.31;63.03;102396.53;451405;117;922820;-74
2021/10/05 03:12:16;;;;;;;6.72;6.22;;;;;;;10.29;63.04;102402.14;452343;117;922701;-74
2021/10/05 03:13:19;;;;;;;7.40;6.51;;;;;;;10.29;63.00;102404.88;450333;117;930477;-75
2021/10/05 03:14:22;;;;;;;6.49;5.96;;;;;;;10.30;63.05;102400.27;463910;114;923059;-72
2021/10/05 03:15:26;;;;;;;6.59;5.95;;;;;;;10.30;62.99;102401.12;464047;114;922806;-74
2021/10/05 03:16:30;;;;;;;7.47;6.48;;;;;;;10.30;62.96;102398.41;463105;114;922504;-74
2021/10/05 03:17:33;;;;;;;7.21;6.52;;;;;;;10.30;62.96;102400.27;463717;114;922873;-75
2021/10/05 03:18:41;;;;;;;9.00;8.35;;;;;;;10.30;62.88;102401.12;464283;114;922984;-73
2021/10/05 03:19:42;;;;;;;8.05;7.23;;;;;;;10.30;62.89;102406.58;463770;114;922587;-74
2021/10/05 03:20:49;;;;;;;9.06;6.47;;;;;;;10.31;62.89;102407.44;460750;114;923119;-74
2021/10/05 03:21:52;;;;;;;7.19;6.52;;;;;;;10.31;62.86;102399.26;462957;114;923127;-74
2021/10/05 03:22:55;;;;;;;7.67;7.07;;;;;;;10.30;62.83;102401.12;463071;114;922562;-74
2021/10/05 03:24:00;;;;;;;7.19;6.56;;;;;;;10.32;62.80;102409.12;463487;114;922468;-75
2021/10/05 03:25:05;;;;;;;7.78;7.17;;;;;;;10.32;62.80;102401.80;461951;114;922604;-74
2021/10/05 03:26:09;;;;;;;8.57;7.00;;;;;;;10.32;62.77;102412.70;462455;113;930665;-74
2021/10/05 03:27:12;;;;;;;6.86;6.30;;;;;;;10.32;62.73;102412.70;464107;114;922480;-73
2021/10/05 03:28:16;;;;;;;8.91;6.82;;;;;;;10.32;62.69;102409.12;453434;116;930512;-75
2021/10/05 03:29:19;;;;;;;7.11;6.51;;;;;;;10.31;62.67;102410.98;461072;114;930512;-75
2021/10/05 03:30:23;;;;;;;7.14;6.56;;;;;;;10.30;62.67;102398.41;462166;114;922515;-74
2021/10/05 03:31:27;;;;;;;7.00;6.37;;;;;;;10.30;62.68;102401.12;459423;114;922764;-74
2021/10/05 03:32:30;;;;;;;7.44;6.86;;;;;;;10.31;62.63;102408.27;460571;114;922557;-73
2021/10/05 03:33:33;;;;;;;7.49;6.73;;;;;;;10.31;62.63;102408.27;462437;114;922513;-73
2021/10/05 03:34:37;;;;;;;8.61;7.91;;;;;;;10.31;62.62;102408.27;459725;114;930434;-73
2021/10/05 03:35:40;;;;;;;9.13;8.41;;;;;;;10.31;62.60;102413.72;463524;114;922613;-75
2021/10/05 03:36:44;;;;;;;7.69;6.88;;;;;;;10.31;62.60;102415.62;463025;114;922464;-74
2021/10/05 03:37:48;;;;;;;7.97;7.21;;;;;;;10.30;62.60;102408.45;462722;114;922536;-75
2021/10/05 03:38:51;;;;;;;8.70;7.58;;;;;;;10.29;62.59;102413.05;461023;114;930963;-74
2021/10/05 03:39:55;;;;;;;7.16;6.54;;;;;;;10.29;62.53;102414.92;461011;114;930622;-75
2021/10/05 03:40:59;;;;;;;7.56;6.95;;;;;;;10.29;62.56;102413.05;462419;114;930902;-75
2021/10/05 03:42:03;;;;;;;8.46;7.09;;;;;;;10.28;62.55;102413.21;463166;113;922505;-74
2021/10/05 03:43:06;;;;;;;7.86;6.97;;;;;;;10.28;62.57;102416.80;451958;116;922663;-74
2021/10/05 03:44:10;;;;;;;6.53;6.07;;;;;;;10.28;62.52;102416.80;453590;114;923058;-75
2021/10/05 03:45:13;;;;;;;7.21;6.06;;;;;;;10.26;62.54;102407.92;462703;114;922885;-73
2021/10/05 03:46:17;;;;;;;6.88;6.29;;;;;;;10.27;62.51;102406.05;464027;114;923422;-74
2021/10/05 03:47:21;;;;;;;7.09;6.49;;;;;;;10.25;62.53;102417.14;460764;113;922659;-75
2021/10/05 03:48:24;;;;;;;6.45;5.95;;;;;;;10.25;62.52;102419.87;460799;114;922709;-75
2021/10/05 03:49:28;;;;;;;6.59;6.05;;;;;;;10.25;62.50;102414.42;462206;114;923031;-74
2021/10/05 03:50:32;;;;;;;6.82;6.25;;;;;;;10.25;62.51;102421.74;462782;114;922835;-74
2021/10/05 03:51:36;;;;;;;6.48;5.98;;;;;;;10.24;62.52;102420.88;463958;114;923080;-75
2021/10/05 03:52:39;;;;;;;7.10;6.51;;;;;;;10.24;62.51;102418.16;462334;114;930378;-74
2021/10/05 03:53:43;;;;;;;6.99;6.39;;;;;;;10.24;62.53;102417.30;462946;114;922929;-74
2021/10/05 03:54:46;;;;;;;6.55;6.05;;;;;;;10.23;62.52;102416.45;459083;113;930606;-75
2021/10/05 03:55:55;;;;;;;5.96;5.56;;;;;;;10.24;62.52;102415.44;462038;114;930481;-74
2021/10/05 03:56:59;;;;;;;7.22;6.62;;;;;;;10.23;62.53;102421.90;461896;114;923248;-76
2021/10/05 03:58:03;;;;;;;7.09;6.46;;;;;;;10.22;62.48;102420.19;460411;114;922502;-74
2021/10/05 03:59:06;;;;;;;8.24;7.51;;;;;;;10.20;62.48;102419.48;461395;114;922907;-75
2021/10/05 04:00:11;;;;;;;7.35;5.73;;;;;;;10.18;62.55;102429.73;461166;114;922306;-74
2021/10/05 04:01:14;;;;;;;5.81;4.94;;;;;;;10.18;62.57;102423.42;462328;114;922627;-74
2021/10/05 04:02:18;;;;;;;5.83;5.33;;;;;;;10.16;62.56;102431.76;462707;113;923130;-72
2021/10/05 04:03:23;;;;;;;5.48;5.01;;;;;;;10.15;62.56;102430.02;460440;114;930651;-74
2021/10/05 04:04:27;;;;;;;6.00;5.47;;;;;;;10.14;62.60;102428.33;461315;114;930546;-73
2021/10/05 04:05:30;;;;;;;9.11;5.05;;;;;;;10.15;62.67;102435.47;463054;114;922749;-74
2021/10/05 04:06:37;;;;;;;6.14;5.62;;;;;;;10.14;62.70;102431.06;461411;114;923402;-75
2021/10/05 04:07:40;;;;;;;7.12;5.99;;;;;;;10.16;62.67;102428.14;459685;114;923603;-75
2021/10/05 04:08:44;;;;;;;5.47;5.01;;;;;;;10.16;62.58;102428.14;463743;114;930549;-74
2021/10/05 04:09:47;;;;;;;8.06;5.44;;;;;;;10.16;62.58;102434.48;463473;114;930490;-73
2021/10/05 04:10:51;;;;;;;5.48;4.96;;;;;;;10.16;62.53;102436.32;459400;114;930488;-76
2021/10/05 04:11:55;;;;;;;7.78;5.93;;;;;;;10.14;62.46;102432.93;459586;115;922472;-73
2021/10/05 04:12:58;;;;;;;6.03;5.58;;;;;;;10.11;62.52;102434.10;459727;114;930673;-75
2021/10/05 04:14:03;;;;;;;5.97;5.38;;;;;;;10.11;62.55;102434.10;458566;113;923060;-75
2021/10/05 04:15:07;;;;;;;6.22;5.31;;;;;;;10.11;62.60;102435.97;460692;115;930530;-74
2021/10/05 04:16:11;;;;;;;6.53;5.93;;;;;;;10.12;62.63;102432.23;460344;115;930608;-72
2021/10/05 04:17:14;;;;;;;5.37;4.84;;;;;;;10.12;62.65;102432.23;458489;115;922739;-75
2021/10/05 04:18:18;;;;;;;5.68;5.24;;;;;;;10.14;62.64;102432.93;458498;113;930717;-74
2021/10/05 04:19:22;;;;;;;5.64;5.14;;;;;;;10.15;62.61;102434.61;460272;115;922532;-75
2021/10/05 04:20:26;;;;;;;6.36;5.84;;;;;;;10.16;62.60;102437.21;460523;115;922944;-74
2021/10/05 04:21:29;;;;;;;7.41;5.47;;;;;;;10.16;62.59;102437.21;457587;115;923551;-75
2021/10/05 04:22:33;;;;;;;11.68;5.84;;;;;;;10.18;62.57;102440.63;459922;115;930485;-74
2021/10/05 04:23:36;;;;;;;6.21;5.71;;;;;;;10.18;62.61;102440.63;459790;115;922554;-75
2021/10/05 04:24:40;;;;;;;6.53;5.93;;;;;;;10.20;62.60;102443.20;459097;115;922708;-74
2021/10/05 04:25:44;;;;;;;7.03;6.35;;;;;;;10.21;62.60;102447.61;459430;115;922734;-75
2021/10/05 04:26:47;;;;;;;6.10;5.46;;;;;;;10.22;62.58;102435.69;458063;115;922492;-73
2021/10/05 04:27:51;;;;;;;6.71;6.07;;;;;;;10.23;62.55;102445.58;459180;115;930557;-75
2021/10/05 04:28:57;;;;;;;5.92;5.42;;;;;;;10.23;62.55;102438.25;457160;115;923969;-73
2021/10/05 04:30:01;;;;;;;10.78;5.74;;;;;;;10.25;62.53;102441.68;457981;115;923744;-76
2021/10/05 04:31:04;;;;;;;6.03;5.35;;;;;;;10.27;62.49;102445.07;458513;115;930504;-75
2021/10/05 04:32:09;;;;;;;6.79;4.96;;;;;;;10.28;62.42;102446.78;459361;113;922511;-75
2021/10/05 04:33:12;;;;;;;7.26;5.58;;;;;;;10.30;62.39;102446.63;459646;114;930438;-75
2021/10/05 04:34:16;;;;;;;7.03;5.49;;;;;;;10.31;62.39;102445.61;460754;115;930562;-73
2021/10/05 04:35:21;;;;;;;6.89;5.11;;;;;;;10.33;62.33;102438.95;457973;115;930517;-73
2021/10/05 04:36:25;;;;;;;5.33;4.87;;;;;;;10.35;62.30;102436.06;458498;115;930506;-73
2021/10/05 04:37:29;;;;;;;8.44;5.62;;;;;;;10.35;62.33;102439.65;457175;115;923521;-74
2021/10/05 04:38:33;;;;;;;10.86;6.63;;;;;;;10.36;62.27;102441.36;458344;115;922671;-73
2021/10/05 04:39:36;;;;;;;5.81;5.28;;;;;;;10.38;62.24;102454.80;458437;115;922406;-74
2021/10/05 04:40:40;;;;;;;8.12;5.35;;;;;;;10.38;62.23;102447.48;459213;115;923047;-76
2021/10/05 04:41:44;;;;;;;6.98;5.66;;;;;;;10.40;62.25;102450.91;456267;115;922334;-75
2021/10/05 04:42:47;;;;;;;6.03;4.87;;;;;;;10.40;62.25;102450.91;450247;117;930631;-75
2021/10/05 04:43:51;;;;;;;10.21;6.41;;;;;;;10.42;62.24;102461.62;442109;117;922548;-77
2021/10/05 04:44:54;;;;;;;8.66;5.15;;;;;;;10.42;62.20;102454.30;450562;115;922814;-76
2021/10/05 04:45:58;;;;;;;10.11;5.23;;;;;;;10.43;62.19;102466.91;458327;115;922865;-76
2021/10/05 04:47:02;;;;;;;7.58;4.96;;;;;;;10.45;62.19;102464.88;459519;115;922721;-77
2021/10/05 04:48:07;;;;;;;9.25;6.36;;;;;;;10.48;62.11;102460.09;459661;115;930528;-76
2021/10/05 04:49:10;;;;;;;6.47;5.42;;;;;;;10.49;62.05;102453.63;460445;115;922501;-76
2021/10/05 04:50:14;;;;;;;10.58;6.44;;;;;;;10.51;62.01;102452.45;458651;115;930551;-75
2021/10/05 04:51:18;;;;;;;6.42;5.44;;;;;;;10.52;61.90;102454.16;460204;115;930504;-74
2021/10/05 04:52:21;;;;;;;6.89;5.38;;;;;;;10.53;61.84;102458.56;458408;115;922518;-75
2021/10/05 04:53:25;;;;;;;8.19;5.58;;;;;;;10.56;61.80;102449.20;458404;114;923187;-74
2021/10/05 04:54:28;;;;;;;6.20;5.60;;;;;;;10.58;61.71;102452.63;459678;115;922724;-75